KLCH

Lake Charles Regional Airport

Lake Charles, Louisiana, USA
METAR KLCH 110253Z 00000KT 10SM CLR 06/03 A3040 RMK AO2 SLP302 T00610033 51018
Observed Flight Rules
Dec-11 @ 02:53 UTC (40 minutes ago) Visual Flight Rules
Visibility Clouds
10 miles
  • Clear skies
Temperatures Readings
Current 6°C / 43°F
Dewpoint 3°C / 37°F
Humidity 81%
Altimeter 30.4" Hg
Pressure 1030.2 hPa
Elevation 4
METAR KLCH 110253Z 00000KT 10SM CLR 06/03 A3040 RMK AO2 SLP302 T00610033 51018
Observed Flight Rules
Dec-11 @ 02:53 UTC
(40 minutes ago)
VFR
Clouds
  • Clear skies
Temperature Dewpoint
6°C / 43°F 3°C / 37°F
Humidity Altimeter Pressure
81% 30.4" Hg 1030.2 hPa